• Join FlightAware (Why Join?)
  • Login
  • US Flag 
05:09AM EDT


 

Airport Tracker/Info


-or-


 

Live Flight TrackerFlight Track Log ✈ AWE2783 ✈ 02-May-2013 ✈ KCLT - KSRQ

Flight Track Log - Related Links

Times and Time Zones

All times are in EDT time to prevent confusion due to time zone crossing. See the AWE2783 flight status page for this flight to view local times or setup timezone preferences in your user account.

Time Position Orientation Groundspeed Altitude Reporting Facility
EDT Latitude Longitude Course Direction KTS MPH feet Rate Location/Type
08:20PM 35.2394 -80.9592 192° South 182 209 1,900  Level Atlanta Center
08:20PM 35.2842 -80.9983 324° Northwest 242 278 2,900 2,040 Climbing Atlanta Center
08:21PM 35.2867 -81.0950 272° West 295 339 5,900 2,580 Climbing Atlanta Center
08:22PM 35.2794 -81.1486 261° West 288 331 7,300 2,040 Climbing Atlanta Center
08:22PM 35.2764 -81.1919 265° West 295 339 8,000 2,160 Climbing Atlanta Center
08:23PM 34.8106 -81.0254 190° South  Level FlightAware Approximate
08:23PM 35.2417 -81.2261 219° Southwest 310 357 9,500  Level Atlanta Center
08:24PM 34.7046 -81.0490 190° South  Level FlightAware Approximate
08:24PM 35.1603 -81.2264 180° South 312 359 11,400  Level Atlanta Center
08:25PM 34.6124 -81.0886 192° South  Level FlightAware Approximate
08:25PM 35.0778 -81.1811 156° South 322 371 13,800  Level Atlanta Center
08:27PM 34.9119 -81.0597 149° Southeast 349 402 18,200 1,980 Climbing Jacksonville Center
08:28PM 34.8325 -81.0336 165° South 344 396 19,600 1,560 Climbing Jacksonville Center
08:29PM 34.7286 -81.0611 192° South 343 395 21,400 1,620 Climbing Jacksonville Center
08:30PM 34.6247 -81.0886 192° South 368 423 22,900 780 Climbing Jacksonville Center
08:31PM 34.5208 -81.1133 191° South 379 436 23,000  Climbing Jacksonville Center
08:32PM 34.4208 -81.1331 189° South 371 427 23,000 300 Level Jacksonville Center
08:33PM 34.3064 -81.1606 191° South 371 427 23,700 900 Climbing Jacksonville Center
08:34PM 34.2108 -81.1800 190° South 381 438 24,900 1,320 Climbing Jacksonville Center
08:35PM 34.0986 -81.2097 192° South 398 458 26,400 1,500 Climbing Jacksonville Center
08:36PM 33.9861 -81.2369 191° South 406 467 27,900 780 Climbing Jacksonville Center
08:37PM 33.8675 -81.2617 190° South 419 482 28,000 600 Climbing Jacksonville Center
08:38PM 33.7469 -81.2892 191° South 431 496 29,200 1,200 Climbing Jacksonville Center
08:39PM 33.6303 -81.3161 191° South 437 503 30,500 1,140 Climbing Jacksonville Center
08:40PM 33.5139 -81.3456 192° South 437 503 31,500 900 Climbing Jacksonville Center
08:41PM 33.3972 -81.3725 191° South 432 497 32,300 1,080 Climbing Jacksonville Center
08:42PM 33.2872 -81.4217 200° South 427 491 33,700 840 Climbing Jacksonville Center
08:43PM 33.1731 -81.4706 200° South 433 498 34,000 120 Climbing Jacksonville Center
08:44PM 33.0567 -81.5194 199° South 438 504 34,000  Level Jacksonville Center
08:45PM 32.9383 -81.5683 199° South 449 517 34,000  Level Jacksonville Center
08:46PM 32.8344 -81.6144 200° South 434 499 34,000  Level Jacksonville Center
08:47PM 32.7367 -81.6528 198° South 402 463 34,000  Level Jacksonville Center
08:48PM 32.6369 -81.6961 200° South 377 434 34,000  Level Jacksonville Center
08:49PM 32.5244 -81.7419 199° South 377 434 34,000  Level Jacksonville Center
08:50PM 32.4206 -81.7875 200° South 397 457 34,000  Level Jacksonville Center
08:51PM 32.3228 -81.8281 199° South 404 465 34,000  Level Jacksonville Center
08:52PM 32.2022 -81.8761 199° South 409 471 34,000  Level Jacksonville Center
08:53PM 32.0897 -81.9192 198° South 425 489 34,000  Level Jacksonville Center
08:54PM 31.9897 -81.9594 199° South 425 489 34,000  Level Jacksonville Center
08:55PM 31.8669 -82.0094 199° South 425 489 34,000  Level Jacksonville Center
08:56PM 31.7650 -82.0494 198° South 425 489 34,000  Level Jacksonville Center
08:57PM 31.6442 -82.0994 199° South 425 489 34,000  Level Jacksonville Center
08:58PM 31.5317 -82.1467 200° South 428 493 34,000  Level Jacksonville Center
08:59PM 31.4192 -82.1914 199° South 428 493 34,000  Level Jacksonville Center
09:00PM 31.3089 -82.2361 199° South 428 493 34,000  Level Jacksonville Center
09:01PM 31.1983 -82.2806 199° South 428 493 34,000  Level Jacksonville Center
09:02PM 31.0878 -82.3250 199° South 428 493 34,000  Level Jacksonville Center
09:03PM 30.9794 -82.3667 198° South 428 493 34,000  Level Jacksonville Center
09:04PM 30.8647 -82.4133 199° South 423 487 34,000  Level Jacksonville Center
09:05PM 30.7564 -82.4575 199° South 428 493 34,000  Level Jacksonville Center
09:06PM 30.6458 -82.4989 198° South 428 493 34,000 -60 Level Jacksonville Center
09:07PM 30.5311 -82.5381 196° South 428 493 33,900 -600 Descending Jacksonville Center
09:08PM 30.4225 -82.5264 175° South 406 467 32,900 -1,020 Descending Jacksonville Center
09:09PM 30.3244 -82.4931 164° South 382 440 31,900 -960 Descending Jacksonville Center
09:10PM 30.2261 -82.4575 163° South 375 432 31,000 -960 Descending Jacksonville Center
09:11PM 30.1300 -82.4292 166° South 365 420 30,000 -1,020 Descending Jacksonville Center
09:12PM 30.0339 -82.3936 162° South 365 420 29,000 -1,020 Descending Jacksonville Center
09:13PM 29.9314 -82.3533 161° South 365 420 28,000 -1,020 Descending Jacksonville Center
09:14PM 29.8247 -82.3228 166° South 377 434 27,000 -540 Descending Jacksonville Center
09:15PM 29.7200 -82.2803 161° South 390 449 27,000 -240 Level Jacksonville Center
09:16PM 29.6094 -82.2594 171° South 400 460 26,600 -1,080 Descending Jacksonville Center
09:17PM 29.5008 -82.2436 173° South 400 460 24,900 -1,800 Descending Jacksonville Center
09:18PM 29.3922 -82.2275 173° South 395 455 23,100 -1,800 Descending Jacksonville Center
09:19PM 29.2856 -82.2117 173° South 395 455 21,400 -1,740 Descending Jacksonville Center
09:20PM 29.1789 -82.1958 173° South 389 448 19,700 -1,740 Descending Jacksonville Center
09:21PM 29.0725 -82.1797 172° South 389 448 18,000 -1,740 Descending Jacksonville Center
09:22PM 28.9681 -82.1639 172° South 389 448 16,300 -1,740 Descending Jacksonville Center
09:24PM 28.8000 -82.1333 171° South 374 430 13,400 -1,560 Descending Tampa TRACON
09:25PM 28.7000 -82.1167 172° South 365 420 12,200 -1,200 Descending Tampa TRACON
09:26PM 28.6167 -82.1167 180° South 349 402 11,200 -660 Descending Tampa TRACON
09:27PM 28.5167 -82.1000 172° South 345 397 11,000 -120 Descending Tampa TRACON
09:28PM 28.4000 -82.0833 173° South 355 409 11,000  Level Tampa TRACON
09:29PM 28.3000 -82.0667 172° South 360 414 11,000  Level Tampa TRACON
09:30PM 28.2000 -82.0500 172° South 366 421 11,000  Level Tampa TRACON
09:31PM 28.1167 -82.0333 170° South 368 423 11,000  Level Tampa TRACON
09:32PM 28.0167 -82.0167 172° South 373 429 11,000 -120 Level Tampa TRACON
09:32PM 27.9333 -82.0667 208° Southwest 353 406 10,800 -720 Descending Tampa TRACON
09:34PM 27.8500 -82.1167 208° Southwest 295 339 9,600 -1,320 Descending Tampa TRACON
09:35PM 27.7667 -82.1333 190° South 288 331 8,100 -1,740 Descending Tampa TRACON
09:36PM 27.7000 -82.1500 192° South 280 322 6,400 -1,740 Descending Tampa TRACON
09:37PM 27.6167 -82.1667 190° South 276 318 4,500 -1,200 Descending Tampa TRACON
09:38PM 27.5667 -82.2167 222° Southwest 269 310 3,900 -780 Descending Tampa TRACON
09:39PM 27.5167 -82.2833 230° Southwest 254 292 3,000 -780 Descending Tampa TRACON
09:40PM 27.4667 -82.3333 222° Southwest 238 274 2,400 -540 Descending Tampa TRACON
09:41PM 27.4167 -82.3833 222° Southwest 222 255 2,000 -420 Descending Tampa TRACON